Time;durP1;ratioP1;P1;durP2;ratioP2;P2;SDS_P1;SDS_P2;PMS_P1;PMS_P2;Temp;Humidity;BMP_temperature;BMP_pressure;BME280_temperature;BME280_humidity;BME280_pressure;Samples;Min_cycle;Max_cycle;Signal;HPM_P1;HPM_P2
2022/12/10 00:02:19;;;;;;;82.20;35.87;;;;;;;5.44;59.64;100903.41;5063864;28;20040;-72
2022/12/10 00:04:44;;;;;;;80.37;37.87;;;;;;;5.58;59.74;100907.84;5069838;28;20040;-72
2022/12/10 00:07:09;;;;;;;85.53;38.97;;;;;;;5.45;60.28;100913.03;5070592;28;20067;-73
2022/12/10 00:09:35;;;;;;;80.70;37.93;;;;;;;5.50;60.08;100907.97;5070092;28;20493;-72
2022/12/10 00:12:00;;;;;;;81.10;37.73;;;;;;;5.54;59.56;100904.75;5069999;28;20425;-70
2022/12/10 00:14:26;;;;;;;96.10;38.93;;;;;;;5.46;59.47;100902.22;5070466;28;20044;-70
2022/12/10 00:16:51;;;;;;;90.57;39.27;;;;;;;5.55;59.80;100902.88;5070309;28;20512;-70
2022/12/10 00:19:16;;;;;;;90.63;38.77;;;;;;;5.49;59.44;100904.47;5068289;28;20588;-70
2022/12/10 00:21:43;;;;;;;84.77;37.90;;;;;;;5.58;59.22;100913.19;5070642;28;20052;-71
2022/12/10 00:24:09;;;;;;;91.17;37.93;;;;;;;5.53;59.55;100903.09;5070287;28;20123;-72
2022/12/10 00:26:36;;;;;;;94.93;40.37;;;;;;;5.32;59.42;100911.91;5070353;28;20033;-72
2022/12/10 00:29:03;;;;;;;90.87;36.60;;;;;;;5.25;60.61;100912.84;5070072;28;20435;-71
2022/12/10 00:31:31;;;;;;;85.30;37.53;;;;;;;5.40;60.35;100904.81;5070080;28;20045;-70
2022/12/10 00:33:59;;;;;;;102.20;40.07;;;;;;;5.31;60.29;100914.75;5070526;28;20040;-71
2022/12/10 00:36:30;;;;;;;83.07;37.97;;;;;;;5.44;59.30;100909.56;5069916;28;20028;-71
2022/12/10 00:38:56;;;;;;;86.50;38.23;;;;;;;5.15;61.21;100909.69;5072845;28;20029;-71
2022/12/10 00:41:21;;;;;;;104.10;40.97;;;;;;;5.22;61.05;100914.06;5074112;28;20086;-71
2022/12/10 00:43:47;;;;;;;91.50;38.67;;;;;;;5.41;60.55;100907.28;5073406;28;20083;-72
2022/12/10 00:46:15;;;;;;;93.37;39.47;;;;;;;5.50;59.51;100898.16;5074474;28;20032;-71
2022/12/10 00:48:41;;;;;;;97.90;40.17;;;;;;;5.56;59.12;100905.38;5073991;28;20651;-72
2022/12/10 00:51:11;;;;;;;96.83;41.97;;;;;;;5.48;59.96;100894.03;5073756;28;20032;-72
2022/12/10 00:53:38;;;;;;;105.40;39.07;;;;;;;5.56;59.53;100902.72;5073503;28;20033;-70
2022/12/10 00:56:04;;;;;;;96.60;40.60;;;;;;;5.57;58.82;100899.03;5073634;28;20039;-72
2022/12/10 00:58:31;;;;;;;91.40;39.20;;;;;;;5.40;60.11;100900.31;5073297;28;20032;-71
2022/12/10 01:01:20;;;;;;;95.93;38.33;;;;;;;5.08;61.70;100901.59;5074131;28;20035;-73
2022/12/10 01:03:48;;;;;;;90.67;36.70;;;;;;;5.24;60.80;100908.53;5073626;28;20051;-71
2022/12/10 01:06:15;;;;;;;93.83;38.33;;;;;;;5.38;60.23;100903.13;5073561;28;20032;-73
2022/12/10 01:08:41;;;;;;;96.57;38.10;;;;;;;5.48;59.48;100904.69;5073475;28;20048;-72
2022/12/10 01:11:09;;;;;;;94.47;39.73;;;;;;;5.41;60.03;100912.59;5073427;28;20048;-72
2022/12/10 01:13:35;;;;;;;99.93;42.20;;;;;;;5.56;59.50;100917.88;5073106;28;20409;-72
2022/12/10 01:16:05;;;;;;;93.37;40.80;;;;;;;5.51;59.89;100913.09;5073658;28;20466;-72
2022/12/10 01:18:30;;;;;;;96.30;39.87;;;;;;;5.62;59.65;100917.91;5071943;28;20545;-73
2022/12/10 01:21:02;;;;;;;101.17;40.83;;;;;;;5.43;59.97;100923.91;5072809;28;20445;-72
2022/12/10 01:23:27;;;;;;;93.30;39.80;;;;;;;5.62;60.14;100923.25;5073190;28;20029;-71
2022/12/10 01:25:52;;;;;;;102.93;41.17;;;;;;;5.70;59.96;100927.66;5073058;28;20610;-71
2022/12/10 01:28:18;;;;;;;101.70;42.20;;;;;;;5.86;59.15;100924.72;5072920;28;20025;-72
2022/12/10 01:30:43;;;;;;;105.00;42.40;;;;;;;6.03;59.90;100929.59;5073291;28;20122;-72
2022/12/10 01:33:08;;;;;;;96.20;40.20;;;;;;;6.21;59.43;100937.13;5073072;28;20097;-72
2022/12/10 01:35:37;;;;;;;105.03;42.47;;;;;;;6.19;58.85;100939.19;5072890;28;20604;-71
2022/12/10 01:38:02;;;;;;;102.17;41.37;;;;;;;5.97;60.18;100946.38;5072787;28;20040;-71
2022/12/10 01:40:28;;;;;;;92.27;42.83;;;;;;;5.90;61.00;100947.31;5088387;28;20048;-70
2022/12/10 01:42:53;;;;;;;103.07;39.77;;;;;;;6.14;58.87;100942.41;5073084;28;20095;-72
2022/12/10 01:45:19;;;;;;;98.83;40.37;;;;;;;5.82;60.64;100945.59;5072600;28;20033;-71
2022/12/10 01:47:45;;;;;;;107.57;39.43;;;;;;;6.13;60.12;100945.28;5053372;28;20452;-71
2022/12/10 01:50:10;;;;;;;97.50;42.77;;;;;;;6.22;59.95;100950.28;5054071;28;20519;-71
2022/12/10 01:52:37;;;;;;;106.77;41.53;;;;;;;6.20;59.61;100949.66;5052603;28;20384;-70
2022/12/10 01:55:08;;;;;;;95.47;40.80;;;;;;;6.33;58.91;100946.22;5052936;28;20037;-71
2022/12/10 01:57:34;;;;;;;89.30;41.33;;;;;;;6.25;60.07;100938.38;5052388;28;20047;-71
2022/12/10 02:00:03;;;;;;;95.97;40.97;;;;;;;6.15;60.29;100929.91;5052401;28;20434;-70
2022/12/10 02:02:42;;;;;;;96.17;39.87;;;;;;;6.30;59.63;100933.28;5052283;28;20083;-70
2022/12/10 02:05:10;;;;;;;99.30;40.43;;;;;;;6.33;59.36;100937.41;5052428;28;20136;-71
2022/12/10 02:07:50;;;;;;;95.17;43.47;;;;;;;6.40;58.77;100930.28;5052314;28;20326;-72
2022/12/10 02:10:50;;;;;;;93.37;39.90;;;;;;;6.31;59.05;100932.25;5053017;28;20044;-72
2022/12/10 02:13:29;;;;;;;91.17;39.43;;;;;;;5.63;60.77;100935.59;5052375;28;20056;-72
2022/12/10 02:16:07;;;;;;;97.33;37.27;;;;;;;5.91;59.59;100935.66;5052508;28;20037;-72
2022/12/10 02:18:51;;;;;;;90.27;38.70;;;;;;;5.58;60.62;100942.50;5052358;28;20082;-73
2022/12/10 02:21:22;;;;;;;82.07;37.00;;;;;;;5.78;60.12;100939.00;5051906;28;20056;-71
2022/12/10 02:23:54;;;;;;;90.10;38.20;;;;;;;5.71;60.38;100935.44;5052103;28;20079;-72
2022/12/10 02:26:44;;;;;;;101.67;39.63;;;;;;;5.61;60.48;100926.13;5050420;28;20214;-72
2022/12/10 02:29:18;;;;;;;106.37;40.40;;;;;;;5.00;62.96;100924.84;5051690;28;20044;-71
2022/12/10 02:31:50;;;;;;;93.80;39.53;;;;;;;5.20;62.20;100932.06;5056837;28;20055;-71
2022/12/10 02:34:17;;;;;;;96.13;38.67;;;;;;;5.13;62.12;100923.16;5072302;28;20033;-70
2022/12/10 02:36:46;;;;;;;98.60;37.93;;;;;;;4.87;61.63;100920.22;5071869;28;20554;-72
2022/12/10 02:39:17;;;;;;;99.23;40.20;;;;;;;5.29;61.72;100922.09;5071935;28;20400;-70
2022/12/10 02:41:51;;;;;;;97.15;38.47;;;;;;;4.93;61.05;100924.78;5070418;28;20403;-71
2022/12/10 02:44:18;;;;;;;97.00;39.53;;;;;;;5.38;61.00;100926.31;5053587;28;20273;-70
2022/12/10 02:46:46;;;;;;;95.67;36.93;;;;;;;5.39;60.14;100925.28;5059054;28;20120;-73
2022/12/10 02:49:14;;;;;;;106.00;38.97;;;;;;;5.47;59.53;100917.16;5072010;28;20082;-72
2022/12/10 02:51:40;;;;;;;97.57;40.07;;;;;;;5.33;59.89;100924.22;5071225;28;20067;-71
2022/12/10 02:54:26;;;;;;;98.13;38.67;;;;;;;5.30;59.74;100923.78;5071488;28;20052;-73
2022/12/10 02:57:00;;;;;;;95.27;39.70;;;;;;;5.47;59.34;100921.66;5069869;28;20040;-74
2022/12/10 03:00:02;;;;;;;96.73;39.93;;;;;;;5.46;59.72;100923.53;5070976;28;20498;-72
2022/12/10 03:02:50;;;;;;;88.33;37.77;;;;;;;5.48;59.43;100918.00;5071497;28;20041;-72
2022/12/10 03:05:23;;;;;;;99.63;37.10;;;;;;;5.41;59.61;100914.44;5070998;28;20420;-72
2022/12/10 03:08:08;;;;;;;93.40;37.47;;;;;;;5.42;60.06;100921.44;5069662;28;20124;-72
2022/12/10 03:10:41;;;;;;;88.87;38.53;;;;;;;5.21;59.84;100915.06;5070989;28;20082;-70
2022/12/10 03:13:11;;;;;;;85.10;38.47;;;;;;;5.30;59.96;100921.09;5071376;28;20425;-71
2022/12/10 03:15:40;;;;;;;97.85;39.13;;;;;;;5.44;59.19;100911.41;5070854;28;20036;-72
2022/12/10 03:18:08;;;;;;;96.80;37.20;;;;;;;5.02;60.75;100915.66;5070985;28;20437;-72
2022/12/10 03:20:37;;;;;;;106.00;41.23;;;;;;;5.15;60.40;100917.66;5070883;28;20053;-72
2022/12/10 03:23:09;;;;;;;100.27;37.20;;;;;;;5.04;61.00;100912.81;5070869;28;20063;-72
2022/12/10 03:25:36;;;;;;;98.37;40.33;;;;;;;5.12;60.55;100918.88;5070833;28;20044;-75
2022/12/10 03:28:01;;;;;;;100.40;38.73;;;;;;;5.29;59.73;100920.28;5071313;28;20100;-72
2022/12/10 03:30:28;;;;;;;94.00;36.20;;;;;;;4.84;61.50;100923.22;5070474;28;20119;-73
2022/12/10 03:32:53;;;;;;;98.93;38.47;;;;;;;5.19;60.01;100922.41;5070785;28;20035;-71
2022/12/10 03:35:21;;;;;;;101.33;37.33;;;;;;;5.15;60.01;100915.81;5070639;28;20408;-70
2022/12/10 03:37:49;;;;;;;102.30;38.30;;;;;;;5.14;60.16;100922.16;5070474;28;20036;-71
2022/12/10 03:40:16;;;;;;;93.60;38.23;;;;;;;4.99;60.52;100915.22;5069695;28;20040;-71
2022/12/10 03:42:41;;;;;;;95.13;38.27;;;;;;;5.27;60.08;100918.81;5068281;28;20025;-71
2022/12/10 03:45:07;;;;;;;99.03;42.03;;;;;;;5.36;59.35;100915.81;5070200;28;20518;-72
2022/12/10 03:47:33;;;;;;;98.77;38.80;;;;;;;5.28;59.54;100913.31;5070473;28;20067;-71
2022/12/10 03:49:58;;;;;;;95.43;40.23;;;;;;;5.24;59.83;100922.69;5070539;28;20554;-71
2022/12/10 03:52:23;;;;;;;92.43;38.73;;;;;;;5.24;59.54;100927.19;5070737;28;20527;-71
2022/12/10 03:54:49;;;;;;;94.90;38.47;;;;;;;5.14;59.69;100916.00;5070826;28;20060;-69
2022/12/10 03:57:14;;;;;;;88.87;36.70;;;;;;;5.18;59.31;100915.44;5052699;28;20060;-73
2022/12/10 03:59:39;;;;;;;92.07;37.43;;;;;;;5.07;59.09;100921.25;5050231;28;20124;-70
2022/12/10 04:02:05;;;;;;;99.93;39.30;;;;;;;4.92;61.03;100919.63;5050083;28;20053;-72
2022/12/10 04:04:30;;;;;;;87.97;38.23;;;;;;;5.12;59.87;100920.69;5050232;28;20036;-72
2022/12/10 04:06:56;;;;;;;97.07;40.53;;;;;;;5.20;60.08;100918.75;5050868;28;20409;-71
2022/12/10 04:09:21;;;;;;;92.90;40.80;;;;;;;5.13;59.82;100922.34;5050135;28;20052;-70
2022/12/10 04:11:47;;;;;;;89.97;39.50;;;;;;;5.17;59.05;100912.94;5049550;28;20136;-71
2022/12/10 04:16:58;;;;;;;95.03;37.33;;;;;;;5.19;59.64;100918.91;5050577;28;20503;-73
2022/12/10 04:19:24;;;;;;;89.63;37.17;;;;;;;5.18;59.73;100920.78;5050209;28;20102;-71
2022/12/10 04:27:24;;;;;;;90.87;36.73;;;;;;;5.17;59.75;100927.09;5070156;28;20296;-71
2022/12/10 04:29:50;;;;;;;99.80;38.53;;;;;;;5.06;59.74;100929.44;5070008;28;20031;-73
2022/12/10 04:32:16;;;;;;;94.43;37.50;;;;;;;5.09;59.38;100929.06;5070400;28;20279;-71
2022/12/10 04:34:41;;;;;;;109.60;41.23;;;;;;;4.82;60.91;100930.56;5051957;28;20175;-71
2022/12/10 04:37:07;;;;;;;95.63;38.40;;;;;;;4.92;59.70;100933.78;5070721;28;20127;-71
2022/12/10 04:39:33;;;;;;;92.43;39.77;;;;;;;4.90;59.40;100930.47;5069621;28;20464;-71
2022/12/10 04:41:59;;;;;;;93.07;38.80;;;;;;;5.04;59.23;100928.78;5069892;28;20053;-73
2022/12/10 04:44:24;;;;;;;103.47;39.27;;;;;;;4.96;59.35;100931.56;5069390;28;20515;-71
2022/12/10 04:46:50;;;;;;;95.60;39.93;;;;;;;4.92;59.08;100931.13;5070101;28;20106;-72
2022/12/10 04:49:16;;;;;;;93.17;38.87;;;;;;;4.82;59.00;100927.91;5070365;28;20063;-71
2022/12/10 04:51:42;;;;;;;88.10;38.07;;;;;;;4.84;59.70;100923.22;5069737;28;20048;-70
2022/12/10 04:54:08;;;;;;;92.53;37.30;;;;;;;4.87;59.35;100930.03;5070031;28;20032;-71
2022/12/10 04:56:34;;;;;;;94.53;37.77;;;;;;;4.60;60.21;100931.50;5069362;28;20037;-71
2022/12/10 04:59:00;;;;;;;93.70;39.10;;;;;;;4.84;59.80;100927.72;5069626;28;20562;-73
2022/12/10 05:01:26;;;;;;;90.63;37.33;;;;;;;4.85;59.63;100932.88;5063438;28;20049;-71
2022/12/10 05:03:52;;;;;;;90.00;37.47;;;;;;;4.60;60.10;100926.19;5050158;28;20029;-70
2022/12/10 05:06:18;;;;;;;91.50;36.77;;;;;;;4.64;59.71;100926.66;5049125;28;20041;-71
2022/12/10 05:08:44;;;;;;;91.80;37.70;;;;;;;4.52;60.63;100931.59;5030434;28;20128;-71
2022/12/10 05:11:16;;;;;;;96.77;39.77;;;;;;;4.65;60.70;100934.44;5049243;28;20120;-70
2022/12/10 05:13:42;;;;;;;95.57;37.93;;;;;;;4.93;59.73;100929.28;5049315;28;20052;-71
2022/12/10 05:16:10;;;;;;;100.70;38.03;;;;;;;4.90;59.97;100930.47;5059167;28;20539;-73
2022/12/10 05:18:36;;;;;;;94.90;38.30;;;;;;;4.91;59.15;100933.97;5069503;28;20493;-72
2022/12/10 05:21:04;;;;;;;88.03;35.47;;;;;;;4.92;59.62;100940.94;5069575;28;20070;-72
2022/12/10 05:23:29;;;;;;;108.63;39.50;;;;;;;4.97;59.76;100944.69;5070529;28;20067;-71
2022/12/10 05:26:06;;;;;;;96.77;40.70;;;;;;;4.90;59.75;100934.97;5073277;28;20052;-73
2022/12/10 05:28:37;;;;;;;97.13;38.93;;;;;;;5.02;59.98;100936.16;5073204;28;20112;-72
2022/12/10 05:31:03;;;;;;;94.17;38.20;;;;;;;5.18;59.79;100933.25;5073135;28;20106;-72
2022/12/10 05:33:29;;;;;;;104.93;40.10;;;;;;;5.13;60.86;100933.81;5072970;28;20555;-71
2022/12/10 05:36:03;;;;;;;99.73;39.13;;;;;;;4.92;61.16;100935.59;5072774;28;20104;-73
2022/12/10 05:38:30;;;;;;;101.90;38.83;;;;;;;4.76;62.60;100939.31;5073172;28;20032;-72
2022/12/10 05:41:00;;;;;;;99.33;37.57;;;;;;;4.63;63.22;100944.47;5072951;28;20455;-71
2022/12/10 05:43:25;;;;;;;96.13;38.93;;;;;;;4.81;61.37;100952.06;5072790;28;20024;-72
2022/12/10 05:45:50;;;;;;;95.57;38.43;;;;;;;4.94;61.81;100946.91;5073175;28;20374;-73
2022/12/10 05:48:16;;;;;;;98.57;38.57;;;;;;;4.83;61.73;100947.38;5071571;28;20075;-71
2022/12/10 05:50:42;;;;;;;111.77;38.47;;;;;;;5.03;60.68;100951.94;5072925;28;20039;-73
2022/12/10 05:53:08;;;;;;;137.63;35.60;;;;;;;4.58;63.29;100954.00;5072592;28;20033;-71
2022/12/10 05:55:33;;;;;;;169.80;34.97;;;;;;;4.48;63.31;100959.59;5072503;28;20119;-71
2022/12/10 05:57:59;;;;;;;160.20;37.07;;;;;;;4.78;62.10;100952.41;5073092;28;20377;-74
2022/12/10 06:00:26;;;;;;;181.50;39.60;;;;;;;4.60;62.73;100959.97;5072479;28;20086;-73
2022/12/10 06:02:51;;;;;;;178.60;37.67;;;;;;;4.39;63.63;100968.66;5072402;28;20039;-72
2022/12/10 06:05:17;;;;;;;121.93;35.57;;;;;;;4.44;63.46;100958.31;5054633;28;20033;-71
2022/12/10 06:07:43;;;;;;;236.30;36.30;;;;;;;4.81;61.59;100962.72;5072450;28;20034;-73
2022/12/10 06:10:10;;;;;;;128.20;35.20;;;;;;;4.53;62.61;100967.84;5072705;28;20369;-72
2022/12/10 06:12:36;;;;;;;156.33;36.53;;;;;;;4.37;63.66;100968.84;5052317;28;20044;-72
2022/12/10 06:15:01;;;;;;;155.37;32.30;;;;;;;4.25;64.27;100961.47;5052555;28;20477;-73
2022/12/10 06:17:26;;;;;;;154.33;37.17;;;;;;;4.07;63.77;100969.00;5072135;28;20060;-72
2022/12/10 06:19:52;;;;;;;170.80;34.37;;;;;;;4.54;63.10;100964.16;5072164;28;20067;-71
2022/12/10 06:22:17;;;;;;;200.17;36.03;;;;;;;4.10;64.92;100964.13;5071857;28;20060;-72
2022/12/10 06:24:42;;;;;;;210.57;35.20;;;;;;;3.91;65.93;100963.81;5072755;28;20111;-72
2022/12/10 06:27:08;;;;;;;167.47;29.30;;;;;;;3.65;65.98;100964.19;5071806;28;20135;-73
2022/12/10 06:29:33;;;;;;;147.17;32.90;;;;;;;3.70;66.71;100972.44;5072089;28;20078;-72
2022/12/10 06:31:58;;;;;;;182.03;36.17;;;;;;;4.20;64.72;100971.84;5064916;28;20528;-72
2022/12/10 06:34:24;;;;;;;139.70;30.57;;;;;;;4.17;64.69;100972.19;5051454;28;20036;-70
2022/12/10 06:36:49;;;;;;;152.70;32.50;;;;;;;3.98;64.45;100976.19;5051814;28;20502;-72
2022/12/10 06:39:14;;;;;;;245.03;33.83;;;;;;;3.70;66.40;100974.25;5051817;28;20045;-71
2022/12/10 06:41:43;;;;;;;151.10;30.30;;;;;;;3.82;65.74;100972.84;5051711;28;20032;-71
2022/12/10 06:44:09;;;;;;;141.23;33.37;;;;;;;4.35;63.73;100973.53;5068177;28;20033;-71
2022/12/10 06:46:34;;;;;;;125.70;31.33;;;;;;;4.26;63.65;100979.09;5071443;28;20484;-73
2022/12/10 06:49:00;;;;;;;155.07;32.40;;;;;;;4.77;61.91;100983.56;5072203;28;20332;-72
2022/12/10 06:51:25;;;;;;;164.37;35.33;;;;;;;4.41;63.87;100986.09;5071441;28;20461;-73
2022/12/10 06:53:50;;;;;;;128.33;33.03;;;;;;;4.27;63.55;100970.94;5071838;28;20170;-72
2022/12/10 06:56:18;;;;;;;111.87;35.83;;;;;;;4.70;62.51;100977.28;5071627;28;20638;-72
2022/12/10 06:58:44;;;;;;;110.10;30.67;;;;;;;4.80;62.02;100982.34;5071571;28;20237;-71
2022/12/10 07:01:13;;;;;;;108.27;33.83;;;;;;;4.39;63.64;100988.13;5071871;28;20032;-72
2022/12/10 07:03:38;;;;;;;108.03;36.33;;;;;;;4.98;62.09;100988.94;5071262;28;20090;-71
2022/12/10 07:06:05;;;;;;;118.73;34.40;;;;;;;4.89;63.06;100990.06;5071183;28;20048;-72
2022/12/10 07:08:30;;;;;;;134.60;34.53;;;;;;;4.64;63.82;101001.97;5071249;28;20112;-70
2022/12/10 07:10:56;;;;;;;144.17;35.53;;;;;;;4.87;62.02;100999.25;5069333;28;20044;-74
2022/12/10 07:13:22;;;;;;;115.27;32.83;;;;;;;4.88;62.82;101004.38;5071455;28;20035;-72
2022/12/10 07:15:48;;;;;;;101.27;34.27;;;;;;;5.15;61.80;100995.72;5064501;28;20416;-72
2022/12/10 07:18:13;;;;;;;106.37;34.40;;;;;;;5.38;60.89;101000.91;5051040;28;20069;-74
2022/12/10 07:20:38;;;;;;;103.77;34.37;;;;;;;5.31;60.88;101000.00;5050532;28;20120;-73
2022/12/10 07:23:04;;;;;;;109.93;33.47;;;;;;;5.45;60.82;101011.63;5033117;28;20033;-74
2022/12/10 07:25:30;;;;;;;109.90;35.13;;;;;;;5.09;61.88;101007.09;5051108;28;20677;-72
2022/12/10 07:27:55;;;;;;;151.10;35.33;;;;;;;4.53;63.96;101013.09;5051451;28;20427;-73
2022/12/10 07:30:20;;;;;;;170.57;35.13;;;;;;;4.50;64.28;101020.59;5051045;28;20654;-75
2022/12/10 07:32:46;;;;;;;105.80;33.30;;;;;;;4.98;62.42;101020.91;5050706;28;20045;-76
2022/12/10 07:35:11;;;;;;;162.90;34.13;;;;;;;4.37;64.09;101027.38;5050426;28;20165;-76
2022/12/10 07:37:36;;;;;;;116.03;33.43;;;;;;;4.80;62.96;101022.28;5050710;28;20056;-75
2022/12/10 07:40:02;;;;;;;98.63;30.07;;;;;;;4.61;64.32;101028.97;5050670;28;20155;-73
2022/12/10 07:42:28;;;;;;;101.70;32.03;;;;;;;5.09;62.70;101032.94;5045759;28;20041;-75
2022/12/10 07:44:53;;;;;;;99.33;31.63;;;;;;;4.95;62.28;101036.44;5050866;28;20148;-74
2022/12/10 07:47:19;;;;;;;93.80;32.40;;;;;;;4.89;62.58;101037.16;5060086;28;20034;-73
2022/12/10 07:49:44;;;;;;;106.07;30.30;;;;;;;4.44;63.67;101041.59;5059069;28;20036;-73
2022/12/10 07:52:10;;;;;;;92.77;30.10;;;;;;;4.85;63.35;101043.84;5059440;28;20146;-72
2022/12/10 07:54:35;;;;;;;90.53;29.53;;;;;;;4.62;64.33;101041.25;5060375;28;20598;-73
2022/12/10 07:57:00;;;;;;;79.90;31.73;;;;;;;4.86;63.13;101046.34;5054905;28;20039;-73
2022/12/10 07:59:26;;;;;;;100.57;32.80;;;;;;;4.73;63.51;101042.66;5059088;28;20031;-74
2022/12/10 08:01:52;;;;;;;99.87;33.20;;;;;;;4.98;63.12;101052.03;5034611;28;20560;-72
2022/12/10 08:04:17;;;;;;;97.80;34.60;;;;;;;5.33;61.84;101051.25;5044872;28;20024;-74
2022/12/10 08:06:43;;;;;;;89.50;34.07;;;;;;;5.49;61.27;101044.91;5054085;28;20108;-75
2022/12/10 08:09:09;;;;;;;106.87;34.27;;;;;;;5.30;62.02;101048.97;5059528;28;20542;-73
2022/12/10 08:11:35;;;;;;;98.40;34.03;;;;;;;5.56;61.10;101048.47;5037018;28;20037;-73
2022/12/10 08:14:00;;;;;;;91.17;33.57;;;;;;;5.58;61.05;101049.91;5057546;28;20105;-76
2022/12/10 08:16:28;;;;;;;97.60;35.70;;;;;;;5.53;61.18;101056.84;5057372;28;20051;-74
2022/12/10 08:18:55;;;;;;;91.00;32.77;;;;;;;5.81;60.76;101055.94;5060414;28;20052;-72
2022/12/10 08:21:24;;;;;;;88.97;33.60;;;;;;;5.59;60.81;101054.25;5057306;28;20033;-73
2022/12/10 08:23:49;;;;;;;88.07;34.03;;;;;;;5.62;61.20;101056.53;5055998;28;20041;-73
2022/12/10 08:26:17;;;;;;;99.50;35.37;;;;;;;5.56;61.41;101054.66;5059774;28;20036;-75
2022/12/10 08:28:43;;;;;;;87.37;32.80;;;;;;;5.53;61.66;101055.00;5037590;28;20037;-74
2022/12/10 08:31:11;;;;;;;87.20;33.90;;;;;;;5.73;60.89;101056.06;5059200;28;20357;-73
2022/12/10 08:33:37;;;;;;;89.70;34.60;;;;;;;5.64;61.04;101059.84;5059849;28;20041;-72
2022/12/10 08:36:05;;;;;;;87.23;34.27;;;;;;;5.76;60.40;101060.19;5057811;28;20127;-74
2022/12/10 08:38:31;;;;;;;89.80;34.50;;;;;;;5.91;60.26;101053.84;5058586;28;20032;-72
2022/12/10 08:40:57;;;;;;;90.53;35.83;;;;;;;5.84;59.80;101071.59;5059929;28;20044;-73
2022/12/10 08:43:23;;;;;;;89.53;31.67;;;;;;;5.18;62.50;101059.28;5059232;28;20216;-73
2022/12/10 08:45:48;;;;;;;87.07;32.07;;;;;;;5.58;61.21;101063.25;5059252;28;20500;-74
2022/12/10 08:48:14;;;;;;;92.73;34.63;;;;;;;5.52;62.26;101064.03;5058583;28;20033;-74
2022/12/10 08:50:39;;;;;;;84.17;30.97;;;;;;;5.59;61.76;101064.91;5059352;28;20132;-71
2022/12/10 08:53:05;;;;;;;92.77;34.33;;;;;;;5.67;61.09;101074.63;5059258;28;20037;-73
2022/12/10 08:55:30;;;;;;;82.40;31.13;;;;;;;5.60;61.31;101073.75;5049625;28;20028;-73
2022/12/10 08:57:57;;;;;;;92.83;33.27;;;;;;;5.74;61.45;101075.56;5050573;28;20036;-72
2022/12/10 09:00:23;;;;;;;98.40;35.73;;;;;;;4.70;64.68;101077.63;5053855;28;20123;-74
2022/12/10 09:02:49;;;;;;;105.17;35.50;;;;;;;4.67;64.05;101078.81;5053333;28;20063;-73
2022/12/10 09:05:14;;;;;;;85.83;33.53;;;;;;;4.71;64.76;101079.28;5046151;28;20037;-73
2022/12/10 09:07:40;;;;;;;108.80;35.25;;;;;;;5.09;64.69;101081.69;5053479;28;20033;-72
2022/12/10 09:10:05;;;;;;;113.60;35.03;;;;;;;5.22;63.77;101078.38;5054118;28;20043;-72
2022/12/10 09:12:33;;;;;;;100.77;37.13;;;;;;;5.57;62.67;101082.09;5053133;28;20044;-74
2022/12/10 09:14:59;;;;;;;112.30;41.43;;;;;;;5.33;64.40;101083.25;5053263;28;20091;-73
2022/12/10 09:17:24;;;;;;;108.00;38.53;;;;;;;5.74;62.45;101089.69;5059553;28;20481;-71
2022/12/10 09:19:50;;;;;;;117.40;38.37;;;;;;;4.82;64.37;101089.47;5071978;28;20068;-75
2022/12/10 09:22:16;;;;;;;104.27;37.43;;;;;;;5.04;64.50;101093.91;5035180;28;20080;-72
2022/12/10 09:24:41;;;;;;;110.37;37.67;;;;;;;5.11;64.28;101094.84;5052420;28;20068;-73
2022/12/10 09:27:06;;;;;;;128.73;40.37;;;;;;;5.42;63.75;101097.28;5052018;28;20115;-75
2022/12/10 09:29:32;;;;;;;123.43;40.97;;;;;;;5.32;63.40;101094.91;5049843;28;20040;-74
2022/12/10 09:31:57;;;;;;;124.60;40.37;;;;;;;5.72;62.26;101101.59;5033726;28;20044;-75
2022/12/10 09:34:23;;;;;;;122.57;41.37;;;;;;;5.83;62.30;101104.63;5052005;28;20546;-74
2022/12/10 09:36:48;;;;;;;115.73;36.90;;;;;;;4.74;64.28;101098.38;5052433;28;20029;-73
2022/12/10 09:39:14;;;;;;;118.70;39.00;;;;;;;5.56;63.57;101099.97;5052258;28;20065;-73
2022/12/10 09:42:01;;;;;;;126.03;37.47;;;;;;;5.22;63.32;101105.88;5052033;28;20063;-73
2022/12/10 09:44:44;;;;;;;129.57;39.70;;;;;;;5.98;61.89;101108.06;5051930;28;20040;-74
2022/12/10 09:47:11;;;;;;;122.73;40.43;;;;;;;6.40;60.66;101107.25;5050759;28;20036;-73
2022/12/10 09:49:51;;;;;;;123.93;40.83;;;;;;;6.41;60.24;101116.91;5031101;28;20060;-71
2022/12/10 09:52:20;;;;;;;125.35;42.33;;;;;;;6.23;60.92;101113.84;5049399;28;20467;-71
2022/12/10 09:54:54;;;;;;;123.53;39.93;;;;;;;5.44;63.99;101122.75;5053469;28;20400;-72
2022/12/10 09:57:24;;;;;;;110.37;39.00;;;;;;;5.65;61.94;101119.31;5052031;28;20287;-71
2022/12/10 09:59:51;;;;;;;127.83;40.00;;;;;;;6.27;60.44;101123.13;5053058;28;20047;-73
2022/12/10 10:02:30;;;;;;;117.35;40.72;;;;;;;6.64;60.29;101124.72;5050434;28;20041;-75
2022/12/10 10:05:07;;;;;;;122.30;41.40;;;;;;;5.71;62.68;101122.06;5050218;28;20124;-74
2022/12/10 10:07:37;;;;;;;128.43;41.90;;;;;;;5.25;64.58;101126.78;5035744;28;20035;-73
2022/12/10 10:10:09;;;;;;;123.75;39.65;;;;;;;6.13;62.30;101124.81;5052029;28;20067;-74
2022/12/10 10:12:37;;;;;;;139.68;43.50;;;;;;;6.03;61.63;101126.16;5052552;28;20033;-74
2022/12/10 10:15:17;;;;;;;140.80;44.22;;;;;;;6.31;61.43;101121.72;5052054;28;20040;-73
2022/12/10 10:17:46;;;;;;;127.73;40.90;;;;;;;5.53;63.45;101124.28;5050778;28;20524;-73
2022/12/10 10:20:13;;;;;;;122.07;42.30;;;;;;;6.34;61.17;101115.19;5034859;28;20064;-75
2022/12/10 10:22:39;;;;;;;122.72;42.83;;;;;;;5.92;61.90;101118.63;5069289;28;20187;-73
2022/12/10 10:25:12;;;;;;;118.15;39.58;;;;;;;5.68;62.89;101119.75;5070032;28;20020;-75
2022/12/10 10:27:37;;;;;;;106.30;36.90;;;;;;;5.75;62.71;101118.03;5070213;28;20048;-75
2022/12/10 10:30:05;;;;;;;118.87;37.63;;;;;;;6.64;60.38;101120.22;5072180;28;20112;-72
2022/12/10 10:32:40;;;;;;;113.45;39.10;;;;;;;5.86;62.13;101122.88;5072273;28;20052;-74
2022/12/10 10:35:06;;;;;;;110.43;37.80;;;;;;;5.97;61.96;101125.09;5072335;28;20042;-74
2022/12/10 10:37:41;;;;;;;114.90;38.80;;;;;;;6.30;61.94;101124.59;5071947;28;20036;-76
2022/12/10 10:40:21;;;;;;;109.63;37.90;;;;;;;6.23;61.70;101129.84;5072307;28;20039;-73
2022/12/10 10:42:46;;;;;;;109.20;38.07;;;;;;;5.74;63.17;101128.88;5069760;28;20078;-73
2022/12/10 10:45:32;;;;;;;111.13;37.60;;;;;;;5.50;63.74;101130.00;5071733;28;20441;-72
2022/12/10 10:48:27;;;;;;;119.22;37.03;;;;;;;5.83;63.88;101123.28;5069508;28;20283;-72
2022/12/10 10:51:15;;;;;;;103.47;37.47;;;;;;;5.96;62.30;101126.09;5072229;28;20029;-73
2022/12/10 10:53:52;;;;;;;119.03;39.27;;;;;;;6.74;60.65;101120.66;5071873;28;20458;-72
2022/12/10 10:56:25;;;;;;;101.03;36.08;;;;;;;6.35;61.07;101116.84;5069860;28;20040;-74
2022/12/10 10:59:16;;;;;;;102.72;38.60;;;;;;;6.88;60.58;101114.41;5062903;28;20440;-72
2022/12/10 11:01:50;;;;;;;105.90;37.60;;;;;;;6.57;60.33;101119.31;5070503;28;20147;-75
2022/12/10 11:04:24;;;;;;;113.25;38.42;;;;;;;6.79;60.66;101115.59;5072688;28;20143;-73
2022/12/10 11:06:54;;;;;;;101.80;37.60;;;;;;;6.50;60.42;101117.59;5073164;28;20119;-75
2022/12/10 11:09:24;;;;;;;113.07;36.38;;;;;;;7.00;60.65;101123.56;5070060;28;20067;-71
2022/12/10 11:11:51;;;;;;;106.80;37.03;;;;;;;7.46;59.04;101120.34;5072478;28;20120;-72
2022/12/10 11:14:32;;;;;;;107.30;38.90;;;;;;;7.29;59.62;101117.19;5069671;28;20036;-73
2022/12/10 11:17:11;;;;;;;101.77;36.13;;;;;;;6.84;60.44;101123.03;5068317;28;20496;-74
2022/12/10 11:20:02;;;;;;;108.82;36.65;;;;;;;7.09;60.28;101118.91;5069815;28;20488;-74
2022/12/10 11:22:30;;;;;;;94.25;37.22;;;;;;;6.84;60.00;101123.03;5070689;28;20040;-73
2022/12/10 11:24:58;;;;;;;99.80;37.13;;;;;;;6.93;60.65;101120.03;5073961;28;20134;-73
2022/12/10 11:27:38;;;;;;;100.57;38.92;;;;;;;7.24;60.44;101118.75;5073050;28;20044;-71
2022/12/10 11:30:22;;;;;;;94.43;38.75;;;;;;;7.38;59.46;101121.31;5073105;28;20151;-72